sensor_id;sensor_type;location;lat;lon;timestamp;pressure;altitude;pressure_sealevel;temperature;humidity
55044;BME280;54902;50.420;18.854;2023-02-20T00:00:40;101930.88;;;1.71;76.76
55044;BME280;54902;50.420;18.854;2023-02-20T00:00:42;101933.57;;;1.71;76.78
55044;BME280;54902;50.420;18.854;2023-02-20T00:01:13;101931.80;;;1.70;76.78
55044;BME280;54902;50.420;18.854;2023-02-20T00:01:53;101929.09;;;1.71;76.79
55044;BME280;54902;50.420;18.854;2023-02-20T00:02:24;101930.93;;;1.69;76.77
55044;BME280;54902;50.420;18.854;2023-02-20T00:02:55;101928.18;;;1.71;76.78
55044;BME280;54902;50.420;18.854;2023-02-20T00:03:26;101921.92;;;1.70;76.79
55044;BME280;54902;50.420;18.854;2023-02-20T00:03:57;101933.57;;;1.71;76.79
55044;BME280;54902;50.420;18.854;2023-02-20T00:04:28;101927.31;;;1.70;76.80
55044;BME280;54902;50.420;18.854;2023-02-20T00:04:59;101931.80;;;1.70;76.81
55044;BME280;54902;50.420;18.854;2023-02-20T00:05:30;101928.18;;;1.71;76.80
55044;BME280;54902;50.420;18.854;2023-02-20T00:06:01;101926.41;;;1.70;76.80
55044;BME280;54902;50.420;18.854;2023-02-20T00:06:32;101937.18;;;1.70;76.80
55044;BME280;54902;50.420;18.854;2023-02-20T00:07:03;101932.70;;;1.70;76.81
55044;BME280;54902;50.420;18.854;2023-02-20T00:07:34;101931.80;;;1.70;76.81
55044;BME280;54902;50.420;18.854;2023-02-20T00:08:05;101926.41;;;1.70;76.80
55044;BME280;54902;50.420;18.854;2023-02-20T00:08:36;101926.41;;;1.70;76.81
55044;BME280;54902;50.420;18.854;2023-02-20T00:09:06;101928.18;;;1.71;76.82
55044;BME280;54902;50.420;18.854;2023-02-20T00:09:37;101926.41;;;1.70;76.81
55044;BME280;54902;50.420;18.854;2023-02-20T00:10:09;101932.70;;;1.70;76.78
55044;BME280;54902;50.420;18.854;2023-02-20T00:10:40;101923.71;;;1.70;76.82
55044;BME280;54902;50.420;18.854;2023-02-20T00:11:11;101923.71;;;1.70;76.81
55044;BME280;54902;50.420;18.854;2023-02-20T00:11:42;101921.02;;;1.70;76.82
55044;BME280;54902;50.420;18.854;2023-02-20T00:12:13;101923.71;;;1.70;76.83
55044;BME280;54902;50.420;18.854;2023-02-20T00:12:44;101921.02;;;1.70;76.83
55044;BME280;54902;50.420;18.854;2023-02-20T00:13:15;101926.41;;;1.70;76.82
55044;BME280;54902;50.420;18.854;2023-02-20T00:13:49;101926.41;;;1.70;76.82
55044;BME280;54902;50.420;18.854;2023-02-20T00:14:20;101921.02;;;1.70;76.83
55044;BME280;54902;50.420;18.854;2023-02-20T00:14:51;101925.54;;;1.69;76.83
55044;BME280;54902;50.420;18.854;2023-02-20T00:15:22;101924.66;;;1.69;76.84
55044;BME280;54902;50.420;18.854;2023-02-20T00:15:53;101921.02;;;1.70;76.84
55044;BME280;54902;50.420;18.854;2023-02-20T00:16:24;101920.16;;;1.69;76.85
55044;BME280;54902;50.420;18.854;2023-02-20T00:16:55;101928.18;;;1.71;76.85
55044;BME280;54902;50.420;18.854;2023-02-20T00:17:26;101925.48;;;1.71;76.84
55044;BME280;54902;50.420;18.854;2023-02-20T00:17:58;101925.54;;;1.69;76.85
55044;BME280;54902;50.420;18.854;2023-02-20T00:18:29;101869.24;;;1.31;76.81
55044;BME280;54902;50.420;18.854;2023-02-20T00:19:03;101929.10;;;1.70;76.86
55044;BME280;54902;50.420;18.854;2023-02-20T00:19:34;101923.71;;;1.70;76.87
55044;BME280;54902;50.420;18.854;2023-02-20T00:20:06;101924.66;;;1.69;76.87
55044;BME280;54902;50.420;18.854;2023-02-20T00:20:37;101921.98;;;1.69;76.87
55044;BME280;54902;50.420;18.854;2023-02-20T00:21:08;101923.71;;;1.70;76.86
55044;BME280;54902;50.420;18.854;2023-02-20T00:21:48;101924.62;;;1.70;76.87
55044;BME280;54902;50.420;18.854;2023-02-20T00:22:24;101919.29;;;1.69;76.86
55044;BME280;54902;50.420;18.854;2023-02-20T00:22:55;101918.34;;;1.70;76.87
55044;BME280;54902;50.420;18.854;2023-02-20T00:23:26;101921.98;;;1.69;76.87
55044;BME280;54902;50.420;18.854;2023-02-20T00:23:57;101920.16;;;1.69;76.86
55044;BME280;54902;50.420;18.854;2023-02-20T00:24:28;101924.66;;;1.69;76.87
55044;BME280;54902;50.420;18.854;2023-02-20T00:24:59;101910.25;;;1.70;76.87
55044;BME280;54902;50.420;18.854;2023-02-20T00:25:30;101920.16;;;1.69;76.88
55044;BME280;54902;50.420;18.854;2023-02-20T00:26:01;101921.02;;;1.70;76.87
55044;BME280;54902;50.420;18.854;2023-02-20T00:26:32;101913.91;;;1.69;76.89
55044;BME280;54902;50.420;18.854;2023-02-20T00:27:03;101913.91;;;1.69;76.89
55044;BME280;54902;50.420;18.854;2023-02-20T00:27:34;101920.16;;;1.69;76.89
55044;BME280;54902;50.420;18.854;2023-02-20T00:28:05;101913.91;;;1.69;76.89
55044;BME280;54902;50.420;18.854;2023-02-20T00:28:40;101920.16;;;1.69;76.89
55044;BME280;54902;50.420;18.854;2023-02-20T00:29:20;101919.29;;;1.69;76.90
55044;BME280;54902;50.420;18.854;2023-02-20T00:29:51;101927.36;;;1.69;76.90
55044;BME280;54902;50.420;18.854;2023-02-20T00:30:23;101914.77;;;1.69;76.90
55044;BME280;54902;50.420;18.854;2023-02-20T00:30:55;101924.66;;;1.69;76.90
55044;BME280;54902;50.420;18.854;2023-02-20T00:31:26;101931.80;;;1.70;76.89
55044;BME280;54902;50.420;18.854;2023-02-20T00:31:57;101921.92;;;1.70;76.89
55044;BME280;54902;50.420;18.854;2023-02-20T00:32:28;101930.93;;;1.69;76.90
55044;BME280;54902;50.420;18.854;2023-02-20T00:32:59;101924.66;;;1.69;76.91
55044;BME280;54902;50.420;18.854;2023-02-20T00:33:30;101923.71;;;1.70;76.91
55044;BME280;54902;50.420;18.854;2023-02-20T00:34:01;101928.23;;;1.69;76.90
55044;BME280;54902;50.420;18.854;2023-02-20T00:34:32;101928.23;;;1.69;76.92
55044;BME280;54902;50.420;18.854;2023-02-20T00:35:03;101922.84;;;1.69;76.91
55044;BME280;54902;50.420;18.854;2023-02-20T00:35:34;101930.05;;;1.69;76.93
55044;BME280;54902;50.420;18.854;2023-02-20T00:36:14;101932.75;;;1.69;76.92
55044;BME280;54902;50.420;18.854;2023-02-20T00:36:45;101935.45;;;1.69;76.91
55044;BME280;54902;50.420;18.854;2023-02-20T00:37:15;101932.75;;;1.69;76.92
55044;BME280;54902;50.420;18.854;2023-02-20T00:37:47;101925.59;;;1.68;76.95
55044;BME280;54902;50.420;18.854;2023-02-20T00:38:17;101927.36;;;1.69;76.96
55044;BME280;54902;50.420;18.854;2023-02-20T00:38:49;101922.90;;;1.68;76.94
55044;BME280;54902;50.420;18.854;2023-02-20T00:39:20;101927.36;;;1.69;76.95
55044;BME280;54902;50.420;18.854;2023-02-20T00:39:51;101924.66;;;1.69;76.94
55044;BME280;54902;50.420;18.854;2023-02-20T00:40:23;101919.29;;;1.69;76.94
55044;BME280;54902;50.420;18.854;2023-02-20T00:40:54;101924.66;;;1.69;76.96
55044;BME280;54902;50.420;18.854;2023-02-20T00:41:25;101923.76;;;1.68;76.95
55044;BME280;54902;50.420;18.854;2023-02-20T00:41:56;101928.28;;;1.68;76.96
55044;BME280;54902;50.420;18.854;2023-02-20T00:42:28;101924.66;;;1.69;76.95
55044;BME280;54902;50.420;18.854;2023-02-20T00:43:02;101924.66;;;1.69;76.95
55044;BME280;54902;50.420;18.854;2023-02-20T00:43:33;101922.90;;;1.68;76.97
55044;BME280;54902;50.420;18.854;2023-02-20T00:44:06;101925.59;;;1.68;76.97
55044;BME280;54902;50.420;18.854;2023-02-20T00:44:37;101924.66;;;1.69;76.95
55044;BME280;54902;50.420;18.854;2023-02-20T00:45:15;101917.51;;;1.68;76.95
55044;BME280;54902;50.420;18.854;2023-02-20T00:45:50;101921.98;;;1.69;76.97
55044;BME280;54902;50.420;18.854;2023-02-20T00:46:21;101924.66;;;1.69;76.97
55044;BME280;54902;50.420;18.854;2023-02-20T00:46:52;101928.28;;;1.68;76.97
55044;BME280;54902;50.420;18.854;2023-02-20T00:47:23;101921.18;;;1.65;76.94
55044;BME280;54902;50.420;18.854;2023-02-20T00:47:54;101927.36;;;1.69;76.99
55044;BME280;54902;50.420;18.854;2023-02-20T00:48:25;101922.90;;;1.68;76.97
55044;BME280;54902;50.420;18.854;2023-02-20T00:48:56;101920.20;;;1.68;76.98
55044;BME280;54902;50.420;18.854;2023-02-20T00:49:31;101920.20;;;1.68;76.98
55044;BME280;54902;50.420;18.854;2023-02-20T00:50:06;101930.05;;;1.69;76.99
55044;BME280;54902;50.420;18.854;2023-02-20T00:50:38;101928.28;;;1.68;77.00
55044;BME280;54902;50.420;18.854;2023-02-20T00:51:10;101925.59;;;1.68;76.99
55044;BME280;54902;50.420;18.854;2023-02-20T00:51:41;101922.90;;;1.68;76.99
55044;BME280;54902;50.420;18.854;2023-02-20T00:52:13;101922.03;;;1.67;76.99
55044;BME280;54902;50.420;18.854;2023-02-20T00:52:44;101935.49;;;1.67;77.01
55044;BME280;54902;50.420;18.854;2023-02-20T00:53:16;101936.41;;;1.66;76.98
55044;BME280;54902;50.420;18.854;2023-02-20T00:53:47;101931.02;;;1.66;77.01
55044;BME280;54902;50.420;18.854;2023-02-20T00:54:19;101935.49;;;1.67;77.01
55044;BME280;54902;50.420;18.854;2023-02-20T00:54:50;101941.75;;;1.68;77.01
55044;BME280;54902;50.420;18.854;2023-02-20T00:55:22;101936.37;;;1.68;77.01
55044;BME280;54902;50.420;18.854;2023-02-20T00:55:53;101943.57;;;1.67;77.00
55044;BME280;54902;50.420;18.854;2023-02-20T00:56:24;101944.45;;;1.68;77.02
55044;BME280;54902;50.420;18.854;2023-02-20T00:56:56;101936.37;;;1.68;77.02
55044;BME280;54902;50.420;18.854;2023-02-20T00:57:27;101939.05;;;1.68;77.04
55044;BME280;54902;50.420;18.854;2023-02-20T00:57:58;101944.45;;;1.68;77.03
55044;BME280;54902;50.420;18.854;2023-02-20T00:58:30;101944.45;;;1.68;77.02
55044;BME280;54902;50.420;18.854;2023-02-20T00:59:01;101939.05;;;1.68;77.02
55044;BME280;54902;50.420;18.854;2023-02-20T00:59:33;101942.67;;;1.67;77.02
55044;BME280;54902;50.420;18.854;2023-02-20T01:00:11;101939.10;;;1.66;77.03
55044;BME280;54902;50.420;18.854;2023-02-20T01:00:42;101930.12;;;1.66;77.03
55044;BME280;54902;50.420;18.854;2023-02-20T01:01:13;101934.59;;;1.67;77.04
55044;BME280;54902;50.420;18.854;2023-02-20T01:01:46;101937.28;;;1.67;77.03
55044;BME280;54902;50.420;18.854;2023-02-20T01:02:20;101939.98;;;1.67;77.03
55044;BME280;54902;50.420;18.854;2023-02-20T01:02:51;101933.72;;;1.66;77.04
55044;BME280;54902;50.420;18.854;2023-02-20T01:03:22;101931.89;;;1.67;77.03
55044;BME280;54902;50.420;18.854;2023-02-20T01:03:53;101935.51;;;1.66;77.05
55044;BME280;54902;50.420;18.854;2023-02-20T01:04:24;101925.64;;;1.66;77.03
55044;BME280;54902;50.420;18.854;2023-02-20T01:04:55;101933.72;;;1.66;77.05
55044;BME280;54902;50.420;18.854;2023-02-20T01:05:26;101926.52;;;1.67;77.04
55044;BME280;54902;50.420;18.854;2023-02-20T01:05:57;101924.73;;;1.66;77.06
55044;BME280;54902;50.420;18.854;2023-02-20T01:06:28;101936.41;;;1.66;77.06
55044;BME280;54902;50.420;18.854;2023-02-20T01:06:59;101925.64;;;1.66;77.06
55044;BME280;54902;50.420;18.854;2023-02-20T01:07:30;101925.64;;;1.66;77.06
55044;BME280;54902;50.420;18.854;2023-02-20T01:08:01;101921.13;;;1.67;77.06
55044;BME280;54902;50.420;18.854;2023-02-20T01:08:31;101921.13;;;1.67;77.08
55044;BME280;54902;50.420;18.854;2023-02-20T01:09:02;101931.02;;;1.66;77.07
55044;BME280;54902;50.420;18.854;2023-02-20T01:09:33;101929.20;;;1.67;77.07
55044;BME280;54902;50.420;18.854;2023-02-20T01:10:05;101924.73;;;1.66;77.09
55044;BME280;54902;50.420;18.854;2023-02-20T01:10:36;101931.89;;;1.67;77.08
55044;BME280;54902;50.420;18.854;2023-02-20T01:11:07;101925.64;;;1.66;77.07
55044;BME280;54902;50.420;18.854;2023-02-20T01:11:41;101926.52;;;1.67;77.09
55044;BME280;54902;50.420;18.854;2023-02-20T01:12:11;101924.73;;;1.66;77.11
55044;BME280;54902;50.420;18.854;2023-02-20T01:12:42;101925.64;;;1.66;77.08
55044;BME280;54902;50.420;18.854;2023-02-20T01:13:13;101924.73;;;1.66;77.08
55044;BME280;54902;50.420;18.854;2023-02-20T01:13:44;101923.81;;;1.67;77.09
55044;BME280;54902;50.420;18.854;2023-02-20T01:14:15;101919.35;;;1.66;77.08
55044;BME280;54902;50.420;18.854;2023-02-20T01:14:49;101922.95;;;1.66;77.08
55044;BME280;54902;50.420;18.854;2023-02-20T01:15:20;101921.13;;;1.67;77.09
55044;BME280;54902;50.420;18.854;2023-02-20T01:15:51;101918.43;;;1.67;77.09
55044;BME280;54902;50.420;18.854;2023-02-20T01:16:22;101921.13;;;1.67;77.08
55044;BME280;54902;50.420;18.854;2023-02-20T01:16:53;101916.64;;;1.67;77.09
55044;BME280;54902;50.420;18.854;2023-02-20T01:17:24;101921.13;;;1.67;77.09
55044;BME280;54902;50.420;18.854;2023-02-20T01:17:55;101914.88;;;1.66;77.08
55044;BME280;54902;50.420;18.854;2023-02-20T01:18:26;101913.05;;;1.67;77.09
55044;BME280;54902;50.420;18.854;2023-02-20T01:18:57;101912.18;;;1.66;77.09
55044;BME280;54902;50.420;18.854;2023-02-20T01:19:28;101908.58;;;1.66;77.09
55044;BME280;54902;50.420;18.854;2023-02-20T01:19:59;101915.74;;;1.67;77.10
55044;BME280;54902;50.420;18.854;2023-02-20T01:20:30;101909.48;;;1.66;77.09
55044;BME280;54902;50.420;18.854;2023-02-20T01:21:01;101915.74;;;1.67;77.09
55044;BME280;54902;50.420;18.854;2023-02-20T01:21:32;101915.74;;;1.67;77.09
55044;BME280;54902;50.420;18.854;2023-02-20T01:22:03;101913.97;;;1.66;77.10
55044;BME280;54902;50.420;18.854;2023-02-20T01:22:38;101915.74;;;1.67;77.10
55044;BME280;54902;50.420;18.854;2023-02-20T01:23:09;101916.64;;;1.67;77.11
55044;BME280;54902;50.420;18.854;2023-02-20T01:23:40;101920.20;;;1.68;77.11
55044;BME280;54902;50.420;18.854;2023-02-20T01:24:11;101922.90;;;1.68;77.10
55044;BME280;54902;50.420;18.854;2023-02-20T01:24:42;101922.90;;;1.68;77.10
55044;BME280;54902;50.420;18.854;2023-02-20T01:25:13;101913.05;;;1.67;77.10
55044;BME280;54902;50.420;18.854;2023-02-20T01:25:44;101925.59;;;1.68;77.11
55044;BME280;54902;50.420;18.854;2023-02-20T01:26:15;101915.74;;;1.67;77.12
55044;BME280;54902;50.420;18.854;2023-02-20T01:26:47;101922.90;;;1.68;77.12
55044;BME280;54902;50.420;18.854;2023-02-20T01:27:19;101915.74;;;1.67;77.13
55044;BME280;54902;50.420;18.854;2023-02-20T01:27:50;101914.83;;;1.68;77.12
55044;BME280;54902;50.420;18.854;2023-02-20T01:28:21;101916.64;;;1.67;77.12
55044;BME280;54902;50.420;18.854;2023-02-20T01:28:52;101920.20;;;1.68;77.11
55044;BME280;54902;50.420;18.854;2023-02-20T01:29:23;101909.44;;;1.68;77.12
55044;BME280;54902;50.420;18.854;2023-02-20T01:29:53;101916.64;;;1.67;77.13
55044;BME280;54902;50.420;18.854;2023-02-20T01:30:24;101910.36;;;1.67;77.13
55044;BME280;54902;50.420;18.854;2023-02-20T01:30:55;101912.13;;;1.68;77.12
55044;BME280;54902;50.420;18.854;2023-02-20T01:31:26;101913.00;;;1.68;77.13
55044;BME280;54902;50.420;18.854;2023-02-20T01:31:57;101911.26;;;1.67;77.13
55044;BME280;54902;50.420;18.854;2023-02-20T01:32:28;101914.83;;;1.68;77.12
55044;BME280;54902;50.420;18.854;2023-02-20T01:32:59;101917.51;;;1.68;77.14
55044;BME280;54902;50.420;18.854;2023-02-20T01:33:30;101909.44;;;1.68;77.14
55044;BME280;54902;50.420;18.854;2023-02-20T01:34:01;101915.69;;;1.68;77.17
55044;BME280;54902;50.420;18.854;2023-02-20T01:34:32;101914.83;;;1.68;77.15
55044;BME280;54902;50.420;18.854;2023-02-20T01:35:03;101921.08;;;1.68;77.15
55044;BME280;54902;50.420;18.854;2023-02-20T01:35:34;101916.59;;;1.69;77.15
55044;BME280;54902;50.420;18.854;2023-02-20T01:36:06;101911.26;;;1.67;77.15
55044;BME280;54902;50.420;18.854;2023-02-20T01:36:37;101922.03;;;1.67;77.18
55044;BME280;54902;50.420;18.854;2023-02-20T01:37:13;101914.77;;;1.69;77.17
55044;BME280;54902;50.420;18.854;2023-02-20T01:37:44;101915.69;;;1.68;77.17
55044;BME280;54902;50.420;18.854;2023-02-20T01:38:15;101915.69;;;1.68;77.17
55044;BME280;54902;50.420;18.854;2023-02-20T01:38:48;101914.83;;;1.68;77.18
55044;BME280;54902;50.420;18.854;2023-02-20T01:39:26;101909.44;;;1.68;77.18
55044;BME280;54902;50.420;18.854;2023-02-20T01:39:58;101917.51;;;1.68;77.17
55044;BME280;54902;50.420;18.854;2023-02-20T01:40:28;101910.31;;;1.68;77.18
55044;BME280;54902;50.420;18.854;2023-02-20T01:41:00;101908.52;;;1.69;77.17
55044;BME280;54902;50.420;18.854;2023-02-20T01:41:31;101912.13;;;1.68;77.18
55044;BME280;54902;50.420;18.854;2023-02-20T01:42:05;101915.69;;;1.68;77.18
55044;BME280;54902;50.420;18.854;2023-02-20T01:42:36;101913.00;;;1.68;77.18
55044;BME280;54902;50.420;18.854;2023-02-20T01:43:09;101915.69;;;1.68;77.19
55044;BME280;54902;50.420;18.854;2023-02-20T01:43:40;101916.59;;;1.69;77.21
55044;BME280;54902;50.420;18.854;2023-02-20T01:44:19;101909.44;;;1.68;77.19
55044;BME280;54902;50.420;18.854;2023-02-20T01:44:51;101904.92;;;1.68;77.20
55044;BME280;54902;50.420;18.854;2023-02-20T01:45:28;101907.61;;;1.68;77.19
55044;BME280;54902;50.420;18.854;2023-02-20T01:46:47;101904.92;;;1.68;77.21
55044;BME280;54902;50.420;18.854;2023-02-20T01:47:22;101902.22;;;1.68;77.20
55044;BME280;54902;50.420;18.854;2023-02-20T01:47:55;101902.22;;;1.68;77.20
55044;BME280;54902;50.420;18.854;2023-02-20T01:48:27;101905.82;;;1.69;77.20
55044;BME280;54902;50.420;18.854;2023-02-20T01:49:05;101908.52;;;1.69;77.20
55044;BME280;54902;50.420;18.854;2023-02-20T01:49:43;101907.61;;;1.68;77.21
55044;BME280;54902;50.420;18.854;2023-02-20T01:50:15;101908.52;;;1.69;77.21
55044;BME280;54902;50.420;18.854;2023-02-20T01:50:50;101903.13;;;1.69;77.21
55044;BME280;54902;50.420;18.854;2023-02-20T01:51:22;101897.74;;;1.69;77.21
55044;BME280;54902;50.420;18.854;2023-02-20T01:51:59;101895.91;;;1.69;77.20
55044;BME280;54902;50.420;18.854;2023-02-20T01:52:34;101897.74;;;1.69;77.21
55044;BME280;54902;50.420;18.854;2023-02-20T01:53:11;101897.74;;;1.69;77.21
55044;BME280;54902;50.420;18.854;2023-02-20T01:53:43;101899.48;;;1.70;77.21
55044;BME280;54902;50.420;18.854;2023-02-20T01:54:17;101899.48;;;1.70;77.22
55044;BME280;54902;50.420;18.854;2023-02-20T01:55:05;101898.61;;;1.69;77.20
55044;BME280;54902;50.420;18.854;2023-02-20T01:55:37;101874.70;;;1.59;77.21
55044;BME280;54902;50.420;18.854;2023-02-20T01:56:10;101893.22;;;1.69;77.22
55044;BME280;54902;50.420;18.854;2023-02-20T01:56:44;101888.70;;;1.70;77.23
55044;BME280;54902;50.420;18.854;2023-02-20T01:57:22;101888.70;;;1.70;77.22
55044;BME280;54902;50.420;18.854;2023-02-20T01:58:02;101886.02;;;1.70;77.23
55044;BME280;54902;50.420;18.854;2023-02-20T01:58:36;101876.16;;;1.70;77.23
55044;BME280;54902;50.420;18.854;2023-02-20T01:59:09;101877.07;;;1.69;77.22
55044;BME280;54902;50.420;18.854;2023-02-20T01:59:43;101875.25;;;1.70;77.24
55044;BME280;54902;50.420;18.854;2023-02-20T02:00:17;101869.86;;;1.70;77.23
55044;BME280;54902;50.420;18.854;2023-02-20T02:00:49;101868.94;;;1.71;77.23
55044;BME280;54902;50.420;18.854;2023-02-20T02:01:20;101867.16;;;1.70;77.25
55044;BME280;54902;50.420;18.854;2023-02-20T02:01:51;101863.55;;;1.71;77.25
55044;BME280;54902;50.420;18.854;2023-02-20T02:02:23;101868.94;;;1.71;77.24
55044;BME280;54902;50.420;18.854;2023-02-20T02:03:00;101863.55;;;1.71;77.25
55044;BME280;54902;50.420;18.854;2023-02-20T02:03:38;101858.16;;;1.71;77.25
55044;BME280;54902;50.420;18.854;2023-02-20T02:04:11;101860.86;;;1.71;77.24
55044;BME280;54902;50.420;18.854;2023-02-20T02:04:43;101863.55;;;1.71;77.25
55044;BME280;54902;50.420;18.854;2023-02-20T02:05:16;101864.45;;;1.71;77.25
55044;BME280;54902;50.420;18.854;2023-02-20T02:05:50;101863.55;;;1.71;77.25
55044;BME280;54902;50.420;18.854;2023-02-20T02:06:22;101856.38;;;1.71;77.25
55044;BME280;54902;50.420;18.854;2023-02-20T02:06:55;101855.47;;;1.71;77.25
55044;BME280;54902;50.420;18.854;2023-02-20T02:07:28;101857.30;;;1.70;77.24
55044;BME280;54902;50.420;18.854;2023-02-20T02:08:02;101857.30;;;1.70;77.25
55044;BME280;54902;50.420;18.854;2023-02-20T02:08:36;101856.38;;;1.71;77.23
55044;BME280;54902;50.420;18.854;2023-02-20T02:09:14;101854.55;;;1.72;77.24
55044;BME280;54902;50.420;18.854;2023-02-20T02:09:55;101849.17;;;1.72;77.26
55044;BME280;54902;50.420;18.854;2023-02-20T02:10:31;101849.17;;;1.72;77.15
55044;BME280;54902;50.420;18.854;2023-02-20T02:11:11;101841.09;;;1.72;77.25
55044;BME280;54902;50.420;18.854;2023-02-20T02:11:43;101843.78;;;1.72;77.24
55044;BME280;54902;50.420;18.854;2023-02-20T02:12:16;101838.40;;;1.72;77.23
55044;BME280;54902;50.420;18.854;2023-02-20T02:12:48;101840.17;;;1.73;77.23
55044;BME280;54902;50.420;18.854;2023-02-20T02:13:21;101843.78;;;1.72;77.23
55044;BME280;54902;50.420;18.854;2023-02-20T02:13:52;101838.40;;;1.72;77.24
55044;BME280;54902;50.420;18.854;2023-02-20T02:14:24;101831.19;;;1.72;77.24
55044;BME280;54902;50.420;18.854;2023-02-20T02:14:54;101829.39;;;1.73;77.25
55044;BME280;54902;50.420;18.854;2023-02-20T02:15:25;101833.02;;;1.72;77.22
55044;BME280;54902;50.420;18.854;2023-02-20T02:21:49;101837.41;;;1.74;77.22
55044;BME280;54902;50.420;18.854;2023-02-20T02:22:33;101838.29;;;1.74;77.24
55044;BME280;54902;50.420;18.854;2023-02-20T02:24:43;101842.80;;;1.74;77.23
55044;BME280;54902;50.420;18.854;2023-02-20T02:26:51;101838.29;;;1.74;77.24
55044;BME280;54902;50.420;18.854;2023-02-20T02:31:55;101841.84;;;1.76;77.26
55044;BME280;54902;50.420;18.854;2023-02-20T02:34:09;101844.53;;;1.76;77.25
55044;BME280;54902;50.420;18.854;2023-02-20T02:37:00;101838.19;;;1.77;77.25
55044;BME280;54902;50.420;18.854;2023-02-20T02:41:27;101808.56;;;1.77;77.27
55044;BME280;54902;50.420;18.854;2023-02-20T02:42:03;101807.69;;;1.77;77.19
55044;BME280;54902;50.420;18.854;2023-02-20T02:43:32;101814.91;;;1.76;77.26
55044;BME280;54902;50.420;18.854;2023-02-20T02:44:11;101813.02;;;1.78;77.26
55044;BME280;54902;50.420;18.854;2023-02-20T02:44:53;101817.54;;;1.78;77.27
55044;BME280;54902;50.420;18.854;2023-02-20T02:45:45;101813.02;;;1.78;77.27
55044;BME280;54902;50.420;18.854;2023-02-20T02:46:24;101810.38;;;1.77;77.26
55044;BME280;54902;50.420;18.854;2023-02-20T02:47:05;101811.26;;;1.77;77.26
55044;BME280;54902;50.420;18.854;2023-02-20T02:47:47;101816.64;;;1.77;77.26
55044;BME280;54902;50.420;18.854;2023-02-20T02:48:25;101822.02;;;1.77;77.28
55044;BME280;54902;50.420;18.854;2023-02-20T02:49:05;101825.63;;;1.78;77.27
55044;BME280;54902;50.420;18.854;2023-02-20T02:50:26;101820.29;;;1.76;77.26
55044;BME280;54902;50.420;18.854;2023-02-20T02:51:02;101821.11;;;1.78;77.25
55044;BME280;54902;50.420;18.854;2023-02-20T02:51:38;101824.72;;;1.77;77.27
55044;BME280;54902;50.420;18.854;2023-02-20T02:52:13;101822.02;;;1.77;77.26
55044;BME280;54902;50.420;18.854;2023-02-20T02:52:56;101832.80;;;1.77;77.27
55044;BME280;54902;50.420;18.854;2023-02-20T02:53:28;101821.11;;;1.78;77.27
55044;BME280;54902;50.420;18.854;2023-02-20T02:54:41;101823.80;;;1.78;77.27
55044;BME280;54902;50.420;18.854;2023-02-20T02:55:18;101823.80;;;1.78;77.26
55044;BME280;54902;50.420;18.854;2023-02-20T02:55:49;101821.11;;;1.78;77.26
55044;BME280;54902;50.420;18.854;2023-02-20T02:56:20;101821.11;;;1.78;77.26
55044;BME280;54902;50.420;18.854;2023-02-20T02:56:53;101822.92;;;1.78;77.28
55044;BME280;54902;50.420;18.854;2023-02-20T02:57:29;101825.57;;;1.79;77.28
55044;BME280;54902;50.420;18.854;2023-02-20T02:58:01;101822.01;;;1.79;77.28
55044;BME280;54902;50.420;18.854;2023-02-20T02:58:32;101830.09;;;1.79;77.28
55044;BME280;54902;50.420;18.854;2023-02-20T02:59:04;101828.27;;;1.79;77.29
55044;BME280;54902;50.420;18.854;2023-02-20T02:59:36;101830.96;;;1.79;77.29
55044;BME280;54902;50.420;18.854;2023-02-20T03:00:11;101824.70;;;1.79;77.29
55044;BME280;54902;50.420;18.854;2023-02-20T03:00:53;101831.82;;;1.80;77.29
55044;BME280;54902;50.420;18.854;2023-02-20T03:01:25;101828.27;;;1.79;77.30
55044;BME280;54902;50.420;18.854;2023-02-20T03:02:02;101822.01;;;1.79;77.18
55044;BME280;54902;50.420;18.854;2023-02-20T03:02:52;101827.34;;;1.80;77.30
55044;BME280;54902;50.420;18.854;2023-02-20T03:03:26;101821.95;;;1.80;77.30
55044;BME280;54902;50.420;18.854;2023-02-20T03:03:59;101819.26;;;1.80;77.29
55044;BME280;54902;50.420;18.854;2023-02-20T03:04:32;101822.82;;;1.81;77.30
55044;BME280;54902;50.420;18.854;2023-02-20T03:05:05;101802.53;;;1.70;77.29
55044;BME280;54902;50.420;18.854;2023-02-20T03:05:46;101825.52;;;1.81;77.29
55044;BME280;54902;50.420;18.854;2023-02-20T03:07:09;101819.26;;;1.80;77.28
55044;BME280;54902;50.420;18.854;2023-02-20T03:07:42;101821.05;;;1.80;77.26
55044;BME280;54902;50.420;18.854;2023-02-20T03:09:05;101816.57;;;1.80;77.29
55044;BME280;54902;50.420;18.854;2023-02-20T03:09:41;101803.44;;;1.70;77.27
55044;BME280;54902;50.420;18.854;2023-02-20T03:10:17;101815.65;;;1.81;77.28
55044;BME280;54902;50.420;18.854;2023-02-20T03:11:06;101825.52;;;1.81;77.30
55044;BME280;54902;50.420;18.854;2023-02-20T03:11:39;101826.42;;;1.81;77.28
55044;BME280;54902;50.420;18.854;2023-02-20T03:12:12;101821.95;;;1.80;77.28
55044;BME280;54902;50.420;18.854;2023-02-20T03:12:44;101821.05;;;1.80;77.27
55044;BME280;54902;50.420;18.854;2023-02-20T03:13:20;101820.29;;;1.76;77.43
55044;BME280;54902;50.420;18.854;2023-02-20T03:14:52;101817.43;;;1.81;77.27
55044;BME280;54902;50.420;18.854;2023-02-20T03:15:45;101818.34;;;1.81;77.28
55044;BME280;54902;50.420;18.854;2023-02-20T03:16:22;101811.18;;;1.80;77.28
55044;BME280;54902;50.420;18.854;2023-02-20T03:17:05;101805.79;;;1.80;77.27
55044;BME280;54902;50.420;18.854;2023-02-20T03:17:42;101800.41;;;1.80;77.27
55044;BME280;54902;50.420;18.854;2023-02-20T03:19:00;101800.41;;;1.80;77.27
55044;BME280;54902;50.420;18.854;2023-02-20T03:20:18;101795.02;;;1.80;77.27
55044;BME280;54902;50.420;18.854;2023-02-20T03:20:54;101795.94;;;1.79;77.26
55044;BME280;54902;50.420;18.854;2023-02-20T03:21:27;101795.88;;;1.81;77.28